Pagrindinis puslapis
METAR-TAF:

METAR-TAF

Oro uostai :

Obihiro, Japonija

platuma: 42-44N, ilguma: 143-13E, Aukštis: 149 m

Dabartinis oras

Ataskaita buvo paskelbta 26 minutes, ne 23:00 UTC
Vėjas 20 kt iš Šiaurės Vakarų su gūsio iki 30 kt
Temperatūra -3°C
Drėgmė 58%
Slėgis 1017 hPa
Matomumas 10 km arba daugiau
Mažai debesys ne aukštis 3000 ft

METAR: RJCB 142300Z 32020G30KT 9999 FEW030 M03/M10 Q1017

Laikas: 08:26 (23:26 UTC)

Prognozė

Ataskaita buvo paskelbta 6 valandos ir 18 minutes, ne 17:08 UTC
Prognozė galioja nuo 14 metu 18 UTC su 16 metu 00 UTC
Vėjas 17 kt iš Šiaurės Vakarų
Matomumas 10 km arba daugiau
Mažai debesys ne aukštis 2000 ft
Su prošvaistėmis ne aukštis 5000 ft
Laikinai
nuo 15 metu 00 UTC su 15 metu 06 UTC
Vėjas 20 kt iš Šiaurės Vakarų su gūsio iki 30 kt
Tapsmas
nuo 15 metu 09 UTC su 15 metu 12 UTC
Vėjas 5 kt iš Šiaurės
Tapsmas
nuo 15 metu 21 UTC su 16 metu 00 UTC
Vėjas 6 kt iš Pietų/Pietryčių

TAF: RJCB 141708Z 1418/1600 32017KT 9999 FEW020 BKN050 TEMPO 1500/1506 32020G30KT BECMG 1509/1512 35005KT BECMG 1521/1600 16006KT

Orai ataskaitas ir orų prognozės (METAR, TAF).

turimą stotys yra geltonos ir raudonos taškus žemėlapyje.

Perkelti pele per norėdami pamatyti stoties vardą.

Tada spustelėkite, norėdami matyti oro stebėjimo ir prognozės.

Norėdami pakeisti žemėlapį: spustelėkite ant žalios mygtukų su juodo kryžiaus žemyn,; žalią mygtuką su brūkšneliu, jei norite nutolinti; arba žalių rodyklių gretimoms žemėlapius.


METAR-TAF: